sensor_id;sensor_type;location;lat;lon;timestamp;temperature;humidity
9768;DHT22;4923;52.520;13.494;2022-12-11T00:00:56;-0.40;1.00
9768;DHT22;4923;52.520;13.494;2022-12-11T00:03:44;-0.50;1.00
9768;DHT22;4923;52.520;13.494;2022-12-11T00:06:31;-0.50;1.00
9768;DHT22;4923;52.520;13.494;2022-12-11T00:09:19;-0.50;1.00
9768;DHT22;4923;52.520;13.494;2022-12-11T00:12:08;-0.40;1.00
9768;DHT22;4923;52.520;13.494;2022-12-11T00:14:55;-0.40;1.00
9768;DHT22;4923;52.520;13.494;2022-12-11T00:17:42;-0.50;1.00
9768;DHT22;4923;52.520;13.494;2022-12-11T00:20:29;-0.50;1.00
9768;DHT22;4923;52.520;13.494;2022-12-11T00:23:16;-0.60;1.00
9768;DHT22;4923;52.520;13.494;2022-12-11T00:26:05;-0.60;1.00
9768;DHT22;4923;52.520;13.494;2022-12-11T00:28:54;-0.60;1.00
9768;DHT22;4923;52.520;13.494;2022-12-11T00:31:42;-0.50;1.00
9768;DHT22;4923;52.520;13.494;2022-12-11T00:34:29;-0.50;1.00
9768;DHT22;4923;52.520;13.494;2022-12-11T00:37:16;-0.50;1.00
9768;DHT22;4923;52.520;13.494;2022-12-11T00:40:04;-0.50;1.00
9768;DHT22;4923;52.520;13.494;2022-12-11T00:42:51;-0.40;1.00
9768;DHT22;4923;52.520;13.494;2022-12-11T00:45:41;-0.50;1.00
9768;DHT22;4923;52.520;13.494;2022-12-11T00:48:28;-0.50;1.00
9768;DHT22;4923;52.520;13.494;2022-12-11T00:51:18;-0.60;1.00
9768;DHT22;4923;52.520;13.494;2022-12-11T00:54:05;-0.60;1.00
9768;DHT22;4923;52.520;13.494;2022-12-11T00:56:54;-0.60;1.00
9768;DHT22;4923;52.520;13.494;2022-12-11T00:59:41;-0.50;1.00
9768;DHT22;4923;52.520;13.494;2022-12-11T01:02:29;-0.60;1.00
9768;DHT22;4923;52.520;13.494;2022-12-11T01:05:16;-0.60;1.00
9768;DHT22;4923;52.520;13.494;2022-12-11T01:08:03;-0.60;1.00
9768;DHT22;4923;52.520;13.494;2022-12-11T01:10:50;-0.50;1.00
9768;DHT22;4923;52.520;13.494;2022-12-11T01:13:38;-0.60;1.00
9768;DHT22;4923;52.520;13.494;2022-12-11T01:16:25;-0.60;1.00
9768;DHT22;4923;52.520;13.494;2022-12-11T01:19:14;-0.60;1.00
9768;DHT22;4923;52.520;13.494;2022-12-11T01:22:01;-0.60;1.00
9768;DHT22;4923;52.520;13.494;2022-12-11T01:24:48;-0.70;1.00
9768;DHT22;4923;52.520;13.494;2022-12-11T01:27:35;-0.80;1.00
9768;DHT22;4923;52.520;13.494;2022-12-11T01:30:24;-0.80;1.00
9768;DHT22;4923;52.520;13.494;2022-12-11T01:33:11;-0.80;1.00
9768;DHT22;4923;52.520;13.494;2022-12-11T01:35:59;-0.80;1.00
9768;DHT22;4923;52.520;13.494;2022-12-11T01:38:47;-0.80;1.00
9768;DHT22;4923;52.520;13.494;2022-12-11T01:41:35;-0.80;1.00
9768;DHT22;4923;52.520;13.494;2022-12-11T01:47:47;-0.70;1.00
9768;DHT22;4923;52.520;13.494;2022-12-11T01:50:43;-0.70;1.00
9768;DHT22;4923;52.520;13.494;2022-12-11T01:53:34;-0.80;1.00
9768;DHT22;4923;52.520;13.494;2022-12-11T01:56:23;-0.90;1.00
9768;DHT22;4923;52.520;13.494;2022-12-11T01:59:10;-0.90;1.00
9768;DHT22;4923;52.520;13.494;2022-12-11T02:02:05;-0.90;1.00
9768;DHT22;4923;52.520;13.494;2022-12-11T02:04:53;-0.90;1.00
9768;DHT22;4923;52.520;13.494;2022-12-11T02:07:45;-1.00;1.00
9768;DHT22;4923;52.520;13.494;2022-12-11T02:10:46;-0.90;1.00
9768;DHT22;4923;52.520;13.494;2022-12-11T02:13:40;-0.90;1.00
9768;DHT22;4923;52.520;13.494;2022-12-11T02:16:34;-1.00;1.00
9768;DHT22;4923;52.520;13.494;2022-12-11T02:19:45;-0.90;1.00
9768;DHT22;4923;52.520;13.494;2022-12-11T02:22:52;-0.90;1.00
9768;DHT22;4923;52.520;13.494;2022-12-11T02:25:47;-1.00;1.00
9768;DHT22;4923;52.520;13.494;2022-12-11T02:28:42;-0.90;1.00
9768;DHT22;4923;52.520;13.494;2022-12-11T02:31:36;-1.00;1.00
9768;DHT22;4923;52.520;13.494;2022-12-11T02:34:29;-1.10;1.00
9768;DHT22;4923;52.520;13.494;2022-12-11T02:37:21;-1.00;1.00
9768;DHT22;4923;52.520;13.494;2022-12-11T02:40:12;-1.00;1.00
9768;DHT22;4923;52.520;13.494;2022-12-11T02:43:02;-1.00;1.00
9768;DHT22;4923;52.520;13.494;2022-12-11T02:45:52;-1.10;1.00
9768;DHT22;4923;52.520;13.494;2022-12-11T02:48:40;-1.10;1.00
9768;DHT22;4923;52.520;13.494;2022-12-11T02:51:31;-1.00;1.00
9768;DHT22;4923;52.520;13.494;2022-12-11T02:54:23;-1.10;1.00
9768;DHT22;4923;52.520;13.494;2022-12-11T02:57:15;-1.10;1.00
9768;DHT22;4923;52.520;13.494;2022-12-11T03:00:04;-1.00;1.00
9768;DHT22;4923;52.520;13.494;2022-12-11T03:02:53;-1.00;1.00
9768;DHT22;4923;52.520;13.494;2022-12-11T03:05:41;-1.00;1.00
9768;DHT22;4923;52.520;13.494;2022-12-11T03:08:28;-1.00;1.00
9768;DHT22;4923;52.520;13.494;2022-12-11T03:11:15;-1.00;1.00
9768;DHT22;4923;52.520;13.494;2022-12-11T03:14:02;-1.00;1.00
9768;DHT22;4923;52.520;13.494;2022-12-11T03:16:55;-0.90;1.00
9768;DHT22;4923;52.520;13.494;2022-12-11T03:19:51;-1.00;1.00
9768;DHT22;4923;52.520;13.494;2022-12-11T03:22:42;-1.00;1.00
9768;DHT22;4923;52.520;13.494;2022-12-11T03:25:34;-1.00;1.00
9768;DHT22;4923;52.520;13.494;2022-12-11T03:28:29;-1.10;1.00
9768;DHT22;4923;52.520;13.494;2022-12-11T03:31:20;-1.10;1.00
9768;DHT22;4923;52.520;13.494;2022-12-11T03:34:13;-1.10;1.00
9768;DHT22;4923;52.520;13.494;2022-12-11T03:37:04;-1.10;1.00
9768;DHT22;4923;52.520;13.494;2022-12-11T03:39:57;-1.10;1.00
9768;DHT22;4923;52.520;13.494;2022-12-11T03:42:50;-1.10;1.00
9768;DHT22;4923;52.520;13.494;2022-12-11T03:45:38;-1.10;1.00
9768;DHT22;4923;52.520;13.494;2022-12-11T03:48:28;-1.10;1.00
9768;DHT22;4923;52.520;13.494;2022-12-11T03:51:16;-1.00;1.00
9768;DHT22;4923;52.520;13.494;2022-12-11T03:54:06;-1.00;1.00
9768;DHT22;4923;52.520;13.494;2022-12-11T03:56:54;-1.00;1.00
9768;DHT22;4923;52.520;13.494;2022-12-11T03:59:42;-1.10;1.00
9768;DHT22;4923;52.520;13.494;2022-12-11T04:02:30;-1.20;1.00
9768;DHT22;4923;52.520;13.494;2022-12-11T04:05:16;-1.10;1.00
9768;DHT22;4923;52.520;13.494;2022-12-11T04:08:04;-1.10;1.00
9768;DHT22;4923;52.520;13.494;2022-12-11T04:10:52;-1.10;1.00
9768;DHT22;4923;52.520;13.494;2022-12-11T04:13:59;-1.10;1.00
9768;DHT22;4923;52.520;13.494;2022-12-11T04:17:04;-1.10;1.00
9768;DHT22;4923;52.520;13.494;2022-12-11T04:19:51;-1.10;1.00
9768;DHT22;4923;52.520;13.494;2022-12-11T04:23:04;-1.10;1.00
9768;DHT22;4923;52.520;13.494;2022-12-11T04:26:13;-1.10;1.00
9768;DHT22;4923;52.520;13.494;2022-12-11T04:29:00;-1.10;1.00
9768;DHT22;4923;52.520;13.494;2022-12-11T04:31:47;-1.10;1.00
9768;DHT22;4923;52.520;13.494;2022-12-11T04:34:35;-1.20;1.00
9768;DHT22;4923;52.520;13.494;2022-12-11T04:37:22;-1.10;1.00
9768;DHT22;4923;52.520;13.494;2022-12-11T04:40:11;-1.00;1.00
9768;DHT22;4923;52.520;13.494;2022-12-11T04:43:01;-1.00;1.00
9768;DHT22;4923;52.520;13.494;2022-12-11T04:45:49;-1.10;1.00
9768;DHT22;4923;52.520;13.494;2022-12-11T04:48:37;-1.10;1.00
9768;DHT22;4923;52.520;13.494;2022-12-11T04:51:25;-1.10;1.00
9768;DHT22;4923;52.520;13.494;2022-12-11T04:54:12;-1.10;1.00
9768;DHT22;4923;52.520;13.494;2022-12-11T04:56:58;-1.00;1.00
9768;DHT22;4923;52.520;13.494;2022-12-11T04:59:47;-1.10;1.00
9768;DHT22;4923;52.520;13.494;2022-12-11T05:02:34;-1.00;1.00
9768;DHT22;4923;52.520;13.494;2022-12-11T05:05:21;-1.10;1.00
9768;DHT22;4923;52.520;13.494;2022-12-11T05:08:08;-1.20;1.00
9768;DHT22;4923;52.520;13.494;2022-12-11T05:10:55;-1.20;1.00
9768;DHT22;4923;52.520;13.494;2022-12-11T05:13:43;-1.20;1.00
9768;DHT22;4923;52.520;13.494;2022-12-11T05:16:31;-1.10;1.00
9768;DHT22;4923;52.520;13.494;2022-12-11T05:19:18;-1.10;1.00
9768;DHT22;4923;52.520;13.494;2022-12-11T05:22:05;-1.00;1.00
9768;DHT22;4923;52.520;13.494;2022-12-11T05:24:52;-1.10;1.00
9768;DHT22;4923;52.520;13.494;2022-12-11T05:27:39;-1.20;1.00
9768;DHT22;4923;52.520;13.494;2022-12-11T05:30:26;-1.10;1.00
9768;DHT22;4923;52.520;13.494;2022-12-11T05:33:15;-1.20;1.00
9768;DHT22;4923;52.520;13.494;2022-12-11T05:36:02;-1.10;1.00
9768;DHT22;4923;52.520;13.494;2022-12-11T05:38:50;-1.10;1.00
9768;DHT22;4923;52.520;13.494;2022-12-11T05:41:37;-1.00;1.00
9768;DHT22;4923;52.520;13.494;2022-12-11T05:44:24;-1.20;1.00
9768;DHT22;4923;52.520;13.494;2022-12-11T05:47:11;-1.20;1.00
9768;DHT22;4923;52.520;13.494;2022-12-11T05:50:00;-1.10;1.00
9768;DHT22;4923;52.520;13.494;2022-12-11T05:52:47;-1.30;1.00
9768;DHT22;4923;52.520;13.494;2022-12-11T05:55:34;-1.20;1.00
9768;DHT22;4923;52.520;13.494;2022-12-11T05:58:21;-1.30;1.00
9768;DHT22;4923;52.520;13.494;2022-12-11T06:01:09;-1.40;1.00
9768;DHT22;4923;52.520;13.494;2022-12-11T06:03:57;-1.30;1.00
9768;DHT22;4923;52.520;13.494;2022-12-11T06:06:46;-1.40;1.00
9768;DHT22;4923;52.520;13.494;2022-12-11T06:09:32;-1.40;1.00
9768;DHT22;4923;52.520;13.494;2022-12-11T06:12:19;-1.50;1.00
9768;DHT22;4923;52.520;13.494;2022-12-11T06:15:07;-1.40;1.00
9768;DHT22;4923;52.520;13.494;2022-12-11T06:17:54;-1.40;1.00
9768;DHT22;4923;52.520;13.494;2022-12-11T06:20:41;-1.50;1.00
9768;DHT22;4923;52.520;13.494;2022-12-11T06:23:29;-1.50;1.00
9768;DHT22;4923;52.520;13.494;2022-12-11T06:26:17;-1.50;1.00
9768;DHT22;4923;52.520;13.494;2022-12-11T06:29:06;-1.40;1.00
9768;DHT22;4923;52.520;13.494;2022-12-11T06:31:53;-1.40;1.00
9768;DHT22;4923;52.520;13.494;2022-12-11T06:34:40;-1.60;1.00
9768;DHT22;4923;52.520;13.494;2022-12-11T06:37:29;-1.60;1.00
9768;DHT22;4923;52.520;13.494;2022-12-11T06:40:18;-1.70;1.00
9768;DHT22;4923;52.520;13.494;2022-12-11T06:43:05;-1.60;1.00
9768;DHT22;4923;52.520;13.494;2022-12-11T06:45:52;-1.70;1.00
9768;DHT22;4923;52.520;13.494;2022-12-11T06:48:39;-1.70;1.00
9768;DHT22;4923;52.520;13.494;2022-12-11T06:51:27;-1.70;1.00
9768;DHT22;4923;52.520;13.494;2022-12-11T06:54:14;-1.80;1.00
9768;DHT22;4923;52.520;13.494;2022-12-11T06:57:02;-1.70;1.00
9768;DHT22;4923;52.520;13.494;2022-12-11T06:59:49;-1.70;1.00
9768;DHT22;4923;52.520;13.494;2022-12-11T07:02:36;-1.70;1.00
9768;DHT22;4923;52.520;13.494;2022-12-11T07:05:23;-1.60;1.00
9768;DHT22;4923;52.520;13.494;2022-12-11T07:08:10;-1.60;1.00
9768;DHT22;4923;52.520;13.494;2022-12-11T07:11:02;-1.70;1.00
9768;DHT22;4923;52.520;13.494;2022-12-11T07:13:50;-1.80;1.00
9768;DHT22;4923;52.520;13.494;2022-12-11T07:16:37;-1.60;1.00
9768;DHT22;4923;52.520;13.494;2022-12-11T07:19:25;-1.80;1.00
9768;DHT22;4923;52.520;13.494;2022-12-11T07:22:13;-1.80;1.00
9768;DHT22;4923;52.520;13.494;2022-12-11T07:25:00;-1.70;1.00
9768;DHT22;4923;52.520;13.494;2022-12-11T07:27:47;-1.80;1.00
9768;DHT22;4923;52.520;13.494;2022-12-11T07:30:37;-1.80;1.00
9768;DHT22;4923;52.520;13.494;2022-12-11T07:33:24;-1.80;1.00
9768;DHT22;4923;52.520;13.494;2022-12-11T07:36:13;-1.70;1.00
9768;DHT22;4923;52.520;13.494;2022-12-11T07:39:01;-1.70;1.00
9768;DHT22;4923;52.520;13.494;2022-12-11T07:41:48;-1.80;1.00
9768;DHT22;4923;52.520;13.494;2022-12-11T07:44:35;-1.80;1.00
9768;DHT22;4923;52.520;13.494;2022-12-11T07:47:23;-1.70;1.00
9768;DHT22;4923;52.520;13.494;2022-12-11T07:50:11;-1.80;1.00
9768;DHT22;4923;52.520;13.494;2022-12-11T07:52:58;-1.70;1.00
9768;DHT22;4923;52.520;13.494;2022-12-11T07:55:45;-1.70;1.00
9768;DHT22;4923;52.520;13.494;2022-12-11T07:58:33;-1.70;1.00
9768;DHT22;4923;52.520;13.494;2022-12-11T08:01:22;-1.70;1.00
9768;DHT22;4923;52.520;13.494;2022-12-11T08:04:11;-1.70;1.00
9768;DHT22;4923;52.520;13.494;2022-12-11T08:07:00;-1.80;1.00
9768;DHT22;4923;52.520;13.494;2022-12-11T08:09:48;-1.80;1.00
9768;DHT22;4923;52.520;13.494;2022-12-11T08:12:35;-1.90;1.00
9768;DHT22;4923;52.520;13.494;2022-12-11T08:15:22;-1.80;1.00
9768;DHT22;4923;52.520;13.494;2022-12-11T08:18:09;-1.90;1.00
9768;DHT22;4923;52.520;13.494;2022-12-11T08:20:57;-1.90;1.00
9768;DHT22;4923;52.520;13.494;2022-12-11T08:23:44;-1.90;1.00
9768;DHT22;4923;52.520;13.494;2022-12-11T08:26:32;-2.00;1.00
9768;DHT22;4923;52.520;13.494;2022-12-11T08:29:19;-1.90;1.00
9768;DHT22;4923;52.520;13.494;2022-12-11T08:32:07;-1.90;1.00
9768;DHT22;4923;52.520;13.494;2022-12-11T08:34:54;-1.90;1.00
9768;DHT22;4923;52.520;13.494;2022-12-11T08:37:42;-1.90;1.00
9768;DHT22;4923;52.520;13.494;2022-12-11T08:40:29;-1.90;1.00
9768;DHT22;4923;52.520;13.494;2022-12-11T08:43:17;-2.00;1.00
9768;DHT22;4923;52.520;13.494;2022-12-11T08:46:05;-1.90;1.00
9768;DHT22;4923;52.520;13.494;2022-12-11T08:48:53;-1.90;1.00
9768;DHT22;4923;52.520;13.494;2022-12-11T08:51:40;-1.80;1.00
9768;DHT22;4923;52.520;13.494;2022-12-11T08:54:29;-1.80;1.00
9768;DHT22;4923;52.520;13.494;2022-12-11T08:57:16;-1.70;1.00
9768;DHT22;4923;52.520;13.494;2022-12-11T09:00:06;-1.70;1.00
9768;DHT22;4923;52.520;13.494;2022-12-11T09:02:54;-1.60;1.00
9768;DHT22;4923;52.520;13.494;2022-12-11T09:05:41;-1.60;1.00
9768;DHT22;4923;52.520;13.494;2022-12-11T09:08:28;-1.70;1.00
9768;DHT22;4923;52.520;13.494;2022-12-11T09:11:19;-1.60;1.00
9768;DHT22;4923;52.520;13.494;2022-12-11T09:14:06;-1.70;1.00
9768;DHT22;4923;52.520;13.494;2022-12-11T09:16:55;-1.70;1.00
9768;DHT22;4923;52.520;13.494;2022-12-11T09:19:42;-1.70;1.00
9768;DHT22;4923;52.520;13.494;2022-12-11T09:22:31;-1.80;1.00
9768;DHT22;4923;52.520;13.494;2022-12-11T09:25:17;-1.70;1.00
9768;DHT22;4923;52.520;13.494;2022-12-11T09:28:06;-1.70;1.00
9768;DHT22;4923;52.520;13.494;2022-12-11T09:30:53;-1.60;1.00
9768;DHT22;4923;52.520;13.494;2022-12-11T09:33:40;-1.60;1.00
9768;DHT22;4923;52.520;13.494;2022-12-11T09:36:27;-1.30;1.00
9768;DHT22;4923;52.520;13.494;2022-12-11T09:39:15;-1.50;1.00
9768;DHT22;4923;52.520;13.494;2022-12-11T09:42:07;-1.60;1.00
9768;DHT22;4923;52.520;13.494;2022-12-11T09:45:00;-1.60;1.00
9768;DHT22;4923;52.520;13.494;2022-12-11T09:47:48;-1.60;1.00
9768;DHT22;4923;52.520;13.494;2022-12-11T09:50:38;-1.60;1.00
9768;DHT22;4923;52.520;13.494;2022-12-11T09:53:29;-1.70;1.00
9768;DHT22;4923;52.520;13.494;2022-12-11T09:56:23;-1.70;1.00
9768;DHT22;4923;52.520;13.494;2022-12-11T09:59:19;-1.60;1.00
9768;DHT22;4923;52.520;13.494;2022-12-11T10:02:22;-1.40;1.00
9768;DHT22;4923;52.520;13.494;2022-12-11T10:05:18;-1.40;1.00
9768;DHT22;4923;52.520;13.494;2022-12-11T10:08:13;-1.50;1.00
9768;DHT22;4923;52.520;13.494;2022-12-11T10:11:16;-1.50;1.00
9768;DHT22;4923;52.520;13.494;2022-12-11T10:14:12;-1.70;1.00
9768;DHT22;4923;52.520;13.494;2022-12-11T10:17:04;-1.60;1.00
9768;DHT22;4923;52.520;13.494;2022-12-11T10:20:15;-1.40;1.00
9768;DHT22;4923;52.520;13.494;2022-12-11T10:23:06;-1.60;1.00
9768;DHT22;4923;52.520;13.494;2022-12-11T10:25:56;-1.50;1.00
9768;DHT22;4923;52.520;13.494;2022-12-11T10:28:44;-1.60;1.00
9768;DHT22;4923;52.520;13.494;2022-12-11T10:31:39;-1.50;1.00
9768;DHT22;4923;52.520;13.494;2022-12-11T10:34:33;-1.40;1.00
9768;DHT22;4923;52.520;13.494;2022-12-11T10:37:23;-1.40;1.00
9768;DHT22;4923;52.520;13.494;2022-12-11T10:40:11;-1.30;1.00
9768;DHT22;4923;52.520;13.494;2022-12-11T10:42:58;-1.20;1.00
9768;DHT22;4923;52.520;13.494;2022-12-11T10:45:50;-1.30;1.00
9768;DHT22;4923;52.520;13.494;2022-12-11T10:48:44;-1.30;1.00
9768;DHT22;4923;52.520;13.494;2022-12-11T10:51:35;-1.40;1.00
9768;DHT22;4923;52.520;13.494;2022-12-11T10:54:32;-1.60;1.00
9768;DHT22;4923;52.520;13.494;2022-12-11T10:57:26;-1.50;1.00
9768;DHT22;4923;52.520;13.494;2022-12-11T11:00:30;-1.40;1.00
9768;DHT22;4923;52.520;13.494;2022-12-11T11:03:22;-1.20;1.00
9768;DHT22;4923;52.520;13.494;2022-12-11T11:06:19;-1.40;1.00
9768;DHT22;4923;52.520;13.494;2022-12-11T11:09:27;-1.40;1.00
9768;DHT22;4923;52.520;13.494;2022-12-11T11:12:22;-1.30;1.00
9768;DHT22;4923;52.520;13.494;2022-12-11T11:15:14;-1.30;1.00
9768;DHT22;4923;52.520;13.494;2022-12-11T11:18:09;-1.10;1.00
9768;DHT22;4923;52.520;13.494;2022-12-11T11:20:57;-1.20;1.00
9768;DHT22;4923;52.520;13.494;2022-12-11T11:23:45;-1.10;1.00
9768;DHT22;4923;52.520;13.494;2022-12-11T11:26:33;-1.20;1.00
9768;DHT22;4923;52.520;13.494;2022-12-11T11:29:26;-1.20;1.00
9768;DHT22;4923;52.520;13.494;2022-12-11T11:32:16;-1.20;1.00
9768;DHT22;4923;52.520;13.494;2022-12-11T11:35:15;-1.30;1.00
9768;DHT22;4923;52.520;13.494;2022-12-11T11:38:12;-1.20;1.00
9768;DHT22;4923;52.520;13.494;2022-12-11T11:41:08;-1.20;1.00
9768;DHT22;4923;52.520;13.494;2022-12-11T11:44:00;-1.20;1.00
9768;DHT22;4923;52.520;13.494;2022-12-11T11:46:54;-1.40;1.00
9768;DHT22;4923;52.520;13.494;2022-12-11T11:49:52;-1.20;1.00
9768;DHT22;4923;52.520;13.494;2022-12-11T11:52:47;-1.20;1.00
9768;DHT22;4923;52.520;13.494;2022-12-11T11:55:45;-1.10;1.00
9768;DHT22;4923;52.520;13.494;2022-12-11T11:58:39;-1.10;1.00
9768;DHT22;4923;52.520;13.494;2022-12-11T12:01:27;-1.00;1.00
9768;DHT22;4923;52.520;13.494;2022-12-11T12:04:16;-1.00;1.00
9768;DHT22;4923;52.520;13.494;2022-12-11T12:07:13;-1.10;1.00
9768;DHT22;4923;52.520;13.494;2022-12-11T12:10:12;-1.10;1.00
9768;DHT22;4923;52.520;13.494;2022-12-11T12:13:04;-1.00;1.00
9768;DHT22;4923;52.520;13.494;2022-12-11T12:15:55;-0.90;1.00
9768;DHT22;4923;52.520;13.494;2022-12-11T12:18:48;-0.70;1.00
9768;DHT22;4923;52.520;13.494;2022-12-11T12:21:42;-0.60;1.00
9768;DHT22;4923;52.520;13.494;2022-12-11T12:24:38;-0.60;1.00
9768;DHT22;4923;52.520;13.494;2022-12-11T12:27:37;-0.80;1.00
9768;DHT22;4923;52.520;13.494;2022-12-11T12:30:30;-0.70;1.00
9768;DHT22;4923;52.520;13.494;2022-12-11T12:33:30;-0.80;1.00
9768;DHT22;4923;52.520;13.494;2022-12-11T12:36:26;-0.80;1.00
9768;DHT22;4923;52.520;13.494;2022-12-11T12:39:19;-0.70;1.00
9768;DHT22;4923;52.520;13.494;2022-12-11T12:42:15;-0.60;1.00
9768;DHT22;4923;52.520;13.494;2022-12-11T12:45:15;-0.70;1.00
9768;DHT22;4923;52.520;13.494;2022-12-11T12:48:03;-0.70;1.00
9768;DHT22;4923;52.520;13.494;2022-12-11T12:50:51;-0.70;1.00
9768;DHT22;4923;52.520;13.494;2022-12-11T12:53:38;-0.50;1.00
9768;DHT22;4923;52.520;13.494;2022-12-11T12:56:30;-0.20;1.00
9768;DHT22;4923;52.520;13.494;2022-12-11T12:59:20;-0.40;1.00
9768;DHT22;4923;52.520;13.494;2022-12-11T13:02:13;-0.40;1.00
9768;DHT22;4923;52.520;13.494;2022-12-11T13:05:16;-0.60;1.00
9768;DHT22;4923;52.520;13.494;2022-12-11T13:08:05;-0.50;1.00
9768;DHT22;4923;52.520;13.494;2022-12-11T13:11:00;-0.60;1.00
9768;DHT22;4923;52.520;13.494;2022-12-11T13:14:01;-0.60;1.00
9768;DHT22;4923;52.520;13.494;2022-12-11T13:16:49;-0.60;1.00
9768;DHT22;4923;52.520;13.494;2022-12-11T13:19:37;-0.50;1.00
9768;DHT22;4923;52.520;13.494;2022-12-11T13:22:24;-0.50;1.00
9768;DHT22;4923;52.520;13.494;2022-12-11T13:25:21;-0.60;1.00
9768;DHT22;4923;52.520;13.494;2022-12-11T13:28:24;-0.50;1.00
9768;DHT22;4923;52.520;13.494;2022-12-11T13:31:32;-0.50;1.00
9768;DHT22;4923;52.520;13.494;2022-12-11T13:34:22;-0.40;1.00
9768;DHT22;4923;52.520;13.494;2022-12-11T13:37:21;-0.50;1.00
9768;DHT22;4923;52.520;13.494;2022-12-11T13:40:16;-0.50;1.00
9768;DHT22;4923;52.520;13.494;2022-12-11T13:43:07;-0.40;1.00
9768;DHT22;4923;52.520;13.494;2022-12-11T13:45:57;-0.40;1.00
9768;DHT22;4923;52.520;13.494;2022-12-11T13:48:47;-0.30;1.00
9768;DHT22;4923;52.520;13.494;2022-12-11T13:51:37;-0.30;1.00
9768;DHT22;4923;52.520;13.494;2022-12-11T13:54:25;-0.20;1.00
9768;DHT22;4923;52.520;13.494;2022-12-11T13:57:16;-0.40;1.00
9768;DHT22;4923;52.520;13.494;2022-12-11T14:00:19;-0.50;1.00
9768;DHT22;4923;52.520;13.494;2022-12-11T14:03:07;-0.60;1.00
9768;DHT22;4923;52.520;13.494;2022-12-11T14:05:57;-0.60;1.00
9768;DHT22;4923;52.520;13.494;2022-12-11T14:08:48;-0.60;1.00
9768;DHT22;4923;52.520;13.494;2022-12-11T14:11:39;-0.70;1.00
9768;DHT22;4923;52.520;13.494;2022-12-11T14:14:37;-0.80;1.00
9768;DHT22;4923;52.520;13.494;2022-12-11T14:17:28;-0.70;1.00
9768;DHT22;4923;52.520;13.494;2022-12-11T14:20:19;-0.80;1.00
9768;DHT22;4923;52.520;13.494;2022-12-11T14:23:16;-0.70;1.00
9768;DHT22;4923;52.520;13.494;2022-12-11T14:26:15;-0.80;1.00
9768;DHT22;4923;52.520;13.494;2022-12-11T14:29:03;-0.80;1.00
9768;DHT22;4923;52.520;13.494;2022-12-11T14:31:50;-0.70;1.00
9768;DHT22;4923;52.520;13.494;2022-12-11T14:34:43;-0.60;1.00
9768;DHT22;4923;52.520;13.494;2022-12-11T14:37:32;-0.70;1.00
9768;DHT22;4923;52.520;13.494;2022-12-11T14:40:24;-0.70;1.00
9768;DHT22;4923;52.520;13.494;2022-12-11T14:43:19;-0.70;1.00
9768;DHT22;4923;52.520;13.494;2022-12-11T14:46:15;-0.70;1.00
9768;DHT22;4923;52.520;13.494;2022-12-11T14:49:05;-0.70;1.00
9768;DHT22;4923;52.520;13.494;2022-12-11T14:51:57;-0.70;1.00
9768;DHT22;4923;52.520;13.494;2022-12-11T14:54:47;-0.60;1.00
9768;DHT22;4923;52.520;13.494;2022-12-11T14:57:39;-0.60;1.00
9768;DHT22;4923;52.520;13.494;2022-12-11T15:00:31;-0.60;1.00
9768;DHT22;4923;52.520;13.494;2022-12-11T15:03:21;-0.60;1.00
9768;DHT22;4923;52.520;13.494;2022-12-11T15:06:23;-0.60;1.00
9768;DHT22;4923;52.520;13.494;2022-12-11T15:09:18;-0.70;1.00
9768;DHT22;4923;52.520;13.494;2022-12-11T15:12:11;-0.70;1.00
9768;DHT22;4923;52.520;13.494;2022-12-11T15:15:04;-0.70;1.00
9768;DHT22;4923;52.520;13.494;2022-12-11T15:17:51;-0.70;1.00
9768;DHT22;4923;52.520;13.494;2022-12-11T15:20:39;-0.70;1.00
9768;DHT22;4923;52.520;13.494;2022-12-11T15:23:26;-0.80;1.00
9768;DHT22;4923;52.520;13.494;2022-12-11T15:26:13;-0.70;1.00
9768;DHT22;4923;52.520;13.494;2022-12-11T15:29:04;-0.70;1.00
9768;DHT22;4923;52.520;13.494;2022-12-11T15:32:00;-0.80;1.00
9768;DHT22;4923;52.520;13.494;2022-12-11T15:34:51;-0.70;1.00
9768;DHT22;4923;52.520;13.494;2022-12-11T15:37:50;-0.60;1.00
9768;DHT22;4923;52.520;13.494;2022-12-11T15:40:37;-0.60;1.00
9768;DHT22;4923;52.520;13.494;2022-12-11T15:43:25;-0.70;1.00
9768;DHT22;4923;52.520;13.494;2022-12-11T15:46:13;-0.60;1.00
9768;DHT22;4923;52.520;13.494;2022-12-11T15:49:08;-0.60;1.00
9768;DHT22;4923;52.520;13.494;2022-12-11T15:51:57;-0.70;1.00
9768;DHT22;4923;52.520;13.494;2022-12-11T15:54:44;-0.60;1.00
9768;DHT22;4923;52.520;13.494;2022-12-11T15:57:30;-0.60;1.00
9768;DHT22;4923;52.520;13.494;2022-12-11T16:00:19;-0.60;1.00
9768;DHT22;4923;52.520;13.494;2022-12-11T16:03:09;-0.60;1.00
9768;DHT22;4923;52.520;13.494;2022-12-11T16:05:58;-0.70;1.00
9768;DHT22;4923;52.520;13.494;2022-12-11T16:08:45;-0.70;1.00
9768;DHT22;4923;52.520;13.494;2022-12-11T16:11:32;-0.70;1.00
9768;DHT22;4923;52.520;13.494;2022-12-11T16:14:19;-0.70;1.00
9768;DHT22;4923;52.520;13.494;2022-12-11T16:17:06;-0.80;1.00
9768;DHT22;4923;52.520;13.494;2022-12-11T16:19:53;-0.70;1.00
9768;DHT22;4923;52.520;13.494;2022-12-11T16:22:42;-0.80;1.00
9768;DHT22;4923;52.520;13.494;2022-12-11T16:25:29;-0.80;1.00
9768;DHT22;4923;52.520;13.494;2022-12-11T16:28:18;-0.80;1.00
9768;DHT22;4923;52.520;13.494;2022-12-11T16:31:09;-0.80;1.00
9768;DHT22;4923;52.520;13.494;2022-12-11T16:33:56;-0.80;1.00
9768;DHT22;4923;52.520;13.494;2022-12-11T16:36:43;-0.90;1.00
9768;DHT22;4923;52.520;13.494;2022-12-11T16:39:32;-0.80;1.00
9768;DHT22;4923;52.520;13.494;2022-12-11T16:42:19;-0.90;1.00
9768;DHT22;4923;52.520;13.494;2022-12-11T16:45:13;-0.80;1.00
9768;DHT22;4923;52.520;13.494;2022-12-11T16:48:02;-0.80;1.00
9768;DHT22;4923;52.520;13.494;2022-12-11T16:50:51;-0.80;1.00
9768;DHT22;4923;52.520;13.494;2022-12-11T16:53:39;-0.80;1.00
9768;DHT22;4923;52.520;13.494;2022-12-11T16:56:27;-0.80;1.00
9768;DHT22;4923;52.520;13.494;2022-12-11T16:59:16;-0.80;1.00
9768;DHT22;4923;52.520;13.494;2022-12-11T17:02:03;-0.80;1.00
9768;DHT22;4923;52.520;13.494;2022-12-11T17:04:52;-0.80;1.00
9768;DHT22;4923;52.520;13.494;2022-12-11T17:07:39;-0.80;1.00
9768;DHT22;4923;52.520;13.494;2022-12-11T17:10:26;-0.90;1.00
9768;DHT22;4923;52.520;13.494;2022-12-11T17:13:15;-0.90;1.00
9768;DHT22;4923;52.520;13.494;2022-12-11T17:16:03;-1.00;1.00
9768;DHT22;4923;52.520;13.494;2022-12-11T17:18:51;-0.90;1.00
9768;DHT22;4923;52.520;13.494;2022-12-11T17:21:37;-0.90;1.00
9768;DHT22;4923;52.520;13.494;2022-12-11T17:24:25;-1.00;1.00
9768;DHT22;4923;52.520;13.494;2022-12-11T17:27:12;-1.00;1.00
9768;DHT22;4923;52.520;13.494;2022-12-11T17:30:01;-1.00;1.00
9768;DHT22;4923;52.520;13.494;2022-12-11T17:32:49;-1.00;1.00
9768;DHT22;4923;52.520;13.494;2022-12-11T17:35:36;-1.00;1.00
9768;DHT22;4923;52.520;13.494;2022-12-11T17:38:23;-1.00;1.00
9768;DHT22;4923;52.520;13.494;2022-12-11T17:41:11;-1.10;1.00
9768;DHT22;4923;52.520;13.494;2022-12-11T17:43:58;-1.00;1.00
9768;DHT22;4923;52.520;13.494;2022-12-11T17:46:47;-1.10;1.00
9768;DHT22;4923;52.520;13.494;2022-12-11T17:49:34;-1.10;1.00
9768;DHT22;4923;52.520;13.494;2022-12-11T17:52:21;-1.00;1.00
9768;DHT22;4923;52.520;13.494;2022-12-11T17:55:08;-1.00;1.00
9768;DHT22;4923;52.520;13.494;2022-12-11T17:57:55;-1.00;1.00
9768;DHT22;4923;52.520;13.494;2022-12-11T18:00:48;-1.00;1.00
9768;DHT22;4923;52.520;13.494;2022-12-11T18:03:37;-1.00;1.00
9768;DHT22;4923;52.520;13.494;2022-12-11T18:06:24;-1.00;1.00
9768;DHT22;4923;52.520;13.494;2022-12-11T18:09:11;-0.90;1.00
9768;DHT22;4923;52.520;13.494;2022-12-11T18:11:58;-1.00;1.00
9768;DHT22;4923;52.520;13.494;2022-12-11T18:14:45;-1.00;1.00
9768;DHT22;4923;52.520;13.494;2022-12-11T18:17:32;-1.00;1.00
9768;DHT22;4923;52.520;13.494;2022-12-11T18:20:21;-1.00;1.00
9768;DHT22;4923;52.520;13.494;2022-12-11T18:23:08;-1.00;1.00
9768;DHT22;4923;52.520;13.494;2022-12-11T18:25:55;-1.00;1.00
9768;DHT22;4923;52.520;13.494;2022-12-11T18:28:43;-1.00;1.00
9768;DHT22;4923;52.520;13.494;2022-12-11T18:31:30;-0.90;1.00
9768;DHT22;4923;52.520;13.494;2022-12-11T18:34:17;-1.00;1.00